Terminal Aerodrome Forecast
Issued by NWS

Home | Current Version | Previous Version | Text Only | Print | Product List | Glossary On
Versions: 1 2 3 4 5 6 7 8 9 10 11 12 13 14 15 16 17 18 19 20 21 22 23 24
289
FTUS45 KPIH 080028 AAA
TAFSUN
TAF AMD
KSUN 080028Z 0800/0824 VRB04KT P6SM SCT015 SCT200
     FM080800 32010KT P6SM SCT200
     FM081800 13008KT P6SM VCSH SCT090 SCT200
     FM082100 14008KT 6SM -SN SCT008 BKN050 BKN090
      AMD LTD TO CLD VIS AND WIND 0806/0814=

USA.gov is the U.S. government's official web portal to all federal, state and local government web resources and services.